createdAt,value
2022-10-18T00:00:20.389Z,100643.97
2022-10-18T00:02:47.454Z,100644.16
2022-10-18T00:05:14.425Z,100642.06
2022-10-18T00:07:41.415Z,100629.38
2022-10-18T00:10:09.790Z,100638.31
2022-10-18T00:12:38.275Z,100629.13
2022-10-18T00:15:07.889Z,100637.84
2022-10-18T00:17:36.725Z,100637.41
2022-10-18T00:20:06.024Z,100643.66
2022-10-18T00:22:39.545Z,100645.53
2022-10-18T00:25:08.110Z,100641.75
2022-10-18T00:27:35.928Z,100640.25
2022-10-18T00:30:03.186Z,100644.19
2022-10-18T00:32:30.863Z,100641.03
2022-10-18T00:34:58.088Z,100636.22
2022-10-18T00:37:25.134Z,100636.81
2022-10-18T00:42:30.720Z,100641.41
2022-10-18T00:45:13.028Z,100642.69
2022-10-18T00:47:40.960Z,100650.19
2022-10-18T00:50:09.014Z,100654.41
2022-10-18T00:52:41.669Z,100645.06
2022-10-18T00:55:10.054Z,100645.53
2022-10-18T00:57:38.331Z,100650.31
2022-10-18T01:00:10.070Z,100652.44
2022-10-18T01:02:40.943Z,100649.13
2022-10-18T01:05:13.961Z,100643.72
2022-10-18T01:08:24.286Z,100647.50
2022-10-18T01:11:09.769Z,100646.66
2022-10-18T01:13:57.105Z,100642.28
2022-10-18T01:17:08.219Z,100648.50
2022-10-18T01:20:37.363Z,100647.91
2022-10-18T01:23:43.556Z,100651.09
2022-10-18T01:26:35.086Z,100644.03
2022-10-18T01:29:41.522Z,100643.06
2022-10-18T01:32:25.366Z,100641.59
2022-10-18T01:34:59.550Z,100650.19
2022-10-18T01:37:29.332Z,100637.72
2022-10-18T01:40:00.001Z,100638.16
2022-10-18T01:42:27.508Z,100641.09
2022-10-18T01:44:54.997Z,100637.78
2022-10-18T01:47:23.362Z,100646.13
2022-10-18T01:49:56.403Z,100633.88
2022-10-18T01:52:23.348Z,100648.69
2022-10-18T01:54:50.377Z,100637.03
2022-10-18T01:57:36.833Z,100635.00
2022-10-18T02:00:25.192Z,100632.75
2022-10-18T02:03:26.045Z,100630.47
2022-10-18T02:06:17.007Z,100628.00
2022-10-18T02:09:16.307Z,100620.94
2022-10-18T02:11:46.342Z,100607.63
2022-10-18T02:14:16.195Z,100613.03
2022-10-18T02:16:53.450Z,100615.97
2022-10-18T02:19:29.774Z,100613.50
2022-10-18T02:21:58.445Z,100618.91
2022-10-18T02:24:34.558Z,100608.31
2022-10-18T02:27:02.221Z,100609.59
2022-10-18T02:29:30.733Z,100594.19
2022-10-18T02:32:24.828Z,100604.63
2022-10-18T02:35:10.296Z,100596.59
2022-10-18T02:37:40.159Z,100595.38
2022-10-18T02:40:10.098Z,100603.13
2022-10-18T02:42:44.190Z,100609.19
2022-10-18T02:45:13.145Z,100609.63
2022-10-18T02:47:40.103Z,100614.59
2022-10-18T02:50:07.796Z,100618.81
2022-10-18T02:52:34.739Z,100619.25
2022-10-18T02:55:01.821Z,100625.09
2022-10-18T02:57:29.092Z,100621.56
2022-10-18T02:59:56.397Z,100624.47
2022-10-18T03:02:23.417Z,100620.13
2022-10-18T03:04:50.408Z,100611.41
2022-10-18T03:07:17.385Z,100618.47
2022-10-18T03:09:44.381Z,100615.78
2022-10-18T03:12:11.343Z,100621.63
2022-10-18T03:14:38.276Z,100629.72
2022-10-18T03:17:05.257Z,100624.75
2022-10-18T03:19:32.189Z,100630.16
2022-10-18T03:21:59.160Z,100626.84
2022-10-18T03:24:26.134Z,100618.75
2022-10-18T03:26:53.043Z,100603.59
2022-10-18T03:29:19.970Z,100610.66
2022-10-18T03:31:47.107Z,100610.66
2022-10-18T03:34:15.650Z,100602.78
2022-10-18T03:36:42.581Z,100609.00
2022-10-18T03:39:12.132Z,100603.59
2022-10-18T03:41:39.202Z,100606.31
2022-10-18T03:44:06.152Z,100606.91
2022-10-18T03:46:33.084Z,100619.34
2022-10-18T03:49:00.047Z,100624.53
2022-10-18T03:51:26.995Z,100616.22
2022-10-18T03:53:53.918Z,100629.50
2022-10-18T03:56:20.980Z,100628.22
2022-10-18T03:58:48.003Z,100636.31
2022-10-18T04:01:14.999Z,100639.03
2022-10-18T04:03:41.944Z,100642.78
2022-10-18T04:06:09.860Z,100639.03
2022-10-18T04:08:36.877Z,100647.13
2022-10-18T04:11:11.131Z,100645.25
2022-10-18T04:13:38.723Z,100654.19
2022-10-18T04:16:05.873Z,100655.00
2022-10-18T04:18:32.867Z,100646.72
2022-10-18T04:20:59.827Z,100638.59
2022-10-18T04:23:26.777Z,100640.03
2022-10-18T04:25:53.753Z,100636.03
2022-10-18T04:28:20.670Z,100636.69
2022-10-18T04:30:54.127Z,100636.69
2022-10-18T04:33:21.099Z,100638.31
2022-10-18T04:35:51.532Z,100644.31
2022-10-18T04:38:19.776Z,100649.53
2022-10-18T04:40:46.857Z,100640.41
2022-10-18T04:43:13.860Z,100650.16
2022-10-18T04:45:40.802Z,100659.09
2022-10-18T04:48:08.885Z,100666.16
2022-10-18T04:50:35.990Z,100659.91
2022-10-18T04:53:14.001Z,100658.03
2022-10-18T04:55:50.019Z,100660.75
2022-10-18T04:58:18.555Z,100655.34
2022-10-18T05:00:45.849Z,100657.00
2022-10-18T05:03:13.919Z,100660.75
2022-10-18T05:06:00.111Z,100663.66
2022-10-18T05:08:28.346Z,100664.72
2022-10-18T05:10:55.376Z,100662.03
2022-10-18T05:13:22.342Z,100666.56
2022-10-18T05:15:49.775Z,100665.75
2022-10-18T05:18:16.786Z,100663.25
2022-10-18T05:20:43.954Z,100668.03
2022-10-18T05:23:11.040Z,100668.03
2022-10-18T05:25:40.287Z,100663.69
2022-10-18T05:28:15.618Z,100668.47
2022-10-18T05:30:48.117Z,100661.19
2022-10-18T05:33:15.053Z,100664.75
2022-10-18T05:35:42.415Z,100660.38
2022-10-18T05:38:09.366Z,100664.75
2022-10-18T05:40:39.494Z,100661.19
2022-10-18T05:43:06.450Z,100651.66
2022-10-18T05:45:33.461Z,100654.59
2022-10-18T05:48:00.493Z,100669.16
2022-10-18T05:50:27.541Z,100672.25
2022-10-18T05:53:06.865Z,100676.25
2022-10-18T05:55:39.609Z,100671.06
2022-10-18T05:58:06.675Z,100669.63
2022-10-18T06:00:33.795Z,100667.97
2022-10-18T06:03:00.912Z,100670.06
2022-10-18T06:05:28.135Z,100665.09
2022-10-18T06:07:56.602Z,100667.19
2022-10-18T06:10:23.590Z,100659.09
2022-10-18T06:12:50.629Z,100658.69
2022-10-18T06:15:20.201Z,100658.06
2022-10-18T06:17:47.426Z,100661.00
2022-10-18T06:20:14.498Z,100663.94
2022-10-18T06:22:41.478Z,100666.41
2022-10-18T06:25:09.029Z,100661.41
2022-10-18T06:27:35.966Z,100662.47
2022-10-18T06:30:03.521Z,100666.22
2022-10-18T06:32:30.534Z,100662.69
2022-10-18T06:34:57.503Z,100666.22
2022-10-18T06:37:24.479Z,100678.06
2022-10-18T06:39:51.442Z,100681.81
2022-10-18T06:42:20.458Z,100683.91
2022-10-18T06:44:49.943Z,100686.81
2022-10-18T06:47:16.922Z,100691.59
2022-10-18T06:49:43.899Z,100695.97
2022-10-18T06:52:10.843Z,100689.13
2022-10-18T06:54:37.758Z,100686.66
2022-10-18T06:57:04.734Z,100690.59
2022-10-18T06:59:31.731Z,100698.91
2022-10-18T07:01:58.741Z,100697.25
2022-10-18T07:04:29.745Z,100705.59
2022-10-18T07:06:56.982Z,100693.09
2022-10-18T07:09:24.051Z,100691.69
2022-10-18T07:11:52.742Z,100700.59
2022-10-18T07:14:19.990Z,100708.09
2022-10-18T07:16:46.957Z,100708.09
2022-10-18T07:19:14.924Z,100709.75
2022-10-18T07:21:41.890Z,100713.06
2022-10-18T07:24:08.822Z,100721.97
2022-10-18T07:26:36.438Z,100736.09
2022-10-18T07:29:11.640Z,100746.69
2022-10-18T07:31:39.057Z,100746.69
2022-10-18T07:34:08.729Z,100747.06
2022-10-18T07:36:35.677Z,100754.16
2022-10-18T07:39:02.943Z,100750.63
2022-10-18T07:41:31.860Z,100751.22
2022-10-18T07:43:59.077Z,100755.16
2022-10-18T07:46:26.075Z,100753.72
2022-10-18T07:48:53.203Z,100754.56
2022-10-18T07:51:21.155Z,100761.22
2022-10-18T07:53:48.535Z,100758.75
2022-10-18T07:56:21.629Z,100761.63
2022-10-18T07:58:54.026Z,100767.25
2022-10-18T08:01:25.939Z,100763.94
2022-10-18T08:03:53.967Z,100769.34
2022-10-18T08:06:22.665Z,100776.63
2022-10-18T08:08:49.908Z,100778.69
2022-10-18T08:11:23.919Z,100780.56
2022-10-18T08:13:52.257Z,100778.06
2022-10-18T08:18:59.399Z,100773.53
2022-10-18T08:21:26.876Z,100772.31
2022-10-18T08:23:53.944Z,100771.66
2022-10-18T08:26:22.670Z,100773.75
2022-10-18T08:29:03.633Z,100777.50
2022-10-18T08:31:37.222Z,100775.03
2022-10-18T08:34:04.161Z,100779.56
2022-10-18T08:36:31.087Z,100774.16
2022-10-18T08:38:58.024Z,100779.38
2022-10-18T08:41:37.162Z,100776.69
2022-10-18T08:44:22.635Z,100777.50
2022-10-18T08:46:55.101Z,100793.25
2022-10-18T08:49:29.758Z,100790.34
2022-10-18T08:51:58.723Z,100794.72
2022-10-18T08:54:52.439Z,100790.97
2022-10-18T08:57:20.353Z,100786.00
2022-10-18T08:59:47.307Z,100789.13
2022-10-18T09:02:28.911Z,100785.19
2022-10-18T09:05:01.402Z,100782.50
2022-10-18T09:07:46.159Z,100791.63
2022-10-18T09:10:43.429Z,100787.06
2022-10-18T09:14:03.066Z,100782.28
2022-10-18T09:16:55.044Z,100785.84
2022-10-18T09:19:55.805Z,100782.69
2022-10-18T09:22:35.428Z,100788.50
2022-10-18T09:25:10.266Z,100789.94
2022-10-18T09:27:52.346Z,100793.47
2022-10-18T09:30:41.058Z,100802.38
2022-10-18T09:33:28.379Z,100799.88
2022-10-18T09:36:03.170Z,100798.19
2022-10-18T09:38:44.459Z,100797.97
2022-10-18T09:41:26.690Z,100801.06
2022-10-18T09:44:25.675Z,100798.34
2022-10-18T09:47:01.705Z,100797.34
2022-10-18T09:49:45.070Z,100797.13
2022-10-18T09:52:21.284Z,100797.94
2022-10-18T09:55:23.793Z,100798.31
2022-10-18T09:57:56.215Z,100795.00
2022-10-18T10:00:44.311Z,100803.91
2022-10-18T10:03:16.989Z,100809.03
2022-10-18T10:05:45.024Z,100810.69
2022-10-18T10:08:12.446Z,100813.38
2022-10-18T10:10:46.488Z,100817.25
2022-10-18T10:13:17.706Z,100816.41
2022-10-18T10:15:57.458Z,100813.44
2022-10-18T10:18:54.243Z,100816.09
2022-10-18T10:21:22.247Z,100820.63
2022-10-18T10:23:59.528Z,100824.13
2022-10-18T10:26:34.095Z,100827.22
2022-10-18T10:29:01.210Z,100824.06
2022-10-18T10:31:32.734Z,100828.00
2022-10-18T10:34:13.107Z,100818.81
2022-10-18T10:36:52.317Z,100825.22
2022-10-18T10:39:22.623Z,100830.56
2022-10-18T10:41:58.907Z,100825.53
2022-10-18T10:44:30.386Z,100830.50
2022-10-18T10:46:57.874Z,100828.88
2022-10-18T10:49:48.586Z,100826.75
2022-10-18T10:52:36.555Z,100826.53
2022-10-18T10:55:30.477Z,100832.16
2022-10-18T10:57:53.537Z,100822.16
2022-10-18T11:00:43.916Z,100825.69
2022-10-18T11:03:34.280Z,100823.59
2022-10-18T11:06:01.816Z,100821.53
2022-10-18T11:08:37.824Z,100815.41
2022-10-18T11:11:38.847Z,100815.59
2022-10-18T11:14:30.536Z,100825.31
2022-10-18T11:17:27.996Z,100824.44
2022-10-18T11:20:20.843Z,100820.84
2022-10-18T11:22:56.750Z,100822.19
2022-10-18T11:25:34.162Z,100823.59
2022-10-18T11:28:29.587Z,100816.72
2022-10-18T11:31:14.872Z,100813.63
2022-10-18T11:34:10.335Z,100808.44
2022-10-18T11:37:22.865Z,100804.50
2022-10-18T11:40:24.447Z,100797.28
2022-10-18T11:43:57.509Z,100791.09
2022-10-18T11:47:20.045Z,100791.22
2022-10-18T11:49:50.788Z,100785.47
2022-10-18T11:53:04.157Z,100786.22
2022-10-18T11:56:01.969Z,100785.28
2022-10-18T11:59:11.027Z,100779.28
2022-10-18T12:02:17.612Z,100775.75
2022-10-18T12:05:18.937Z,100777.03
2022-10-18T12:08:34.677Z,100781.88
2022-10-18T12:11:26.706Z,100773.75
2022-10-18T12:14:02.086Z,100777.16
2022-10-18T12:16:50.913Z,100776.81
2022-10-18T12:19:27.610Z,100777.28
2022-10-18T12:22:02.434Z,100776.69
2022-10-18T12:24:31.895Z,100779.16
2022-10-18T12:27:01.505Z,100775.63
2022-10-18T12:29:44.324Z,100769.97
2022-10-18T12:32:19.189Z,100779.66
2022-10-18T12:35:00.821Z,100782.00
2022-10-18T12:37:55.435Z,100774.56
2022-10-18T12:40:42.765Z,100783.44
2022-10-18T12:43:18.822Z,100773.53
2022-10-18T12:45:58.775Z,100776.81
2022-10-18T12:48:39.076Z,100779.78
2022-10-18T12:51:20.794Z,100770.19
2022-10-18T12:54:02.882Z,100770.19
2022-10-18T12:56:29.689Z,100775.50
2022-10-18T12:59:15.030Z,100771.09
2022-10-18T13:01:50.818Z,100776.53
2022-10-18T13:04:32.252Z,100773.47
2022-10-18T13:07:04.695Z,100767.47
2022-10-18T13:09:44.957Z,100767.94
2022-10-18T13:12:14.329Z,100769.22
2022-10-18T13:15:25.852Z,100768.66
2022-10-18T13:17:59.772Z,100760.13
2022-10-18T13:20:48.351Z,100759.66
2022-10-18T13:23:42.370Z,100759.44
2022-10-18T13:26:43.364Z,100764.63
2022-10-18T13:29:58.248Z,100765.47
2022-10-18T13:32:47.440Z,100770.06
2022-10-18T13:35:54.964Z,100769.22
2022-10-18T13:38:38.204Z,100762.63
2022-10-18T13:41:21.767Z,100764.25
2022-10-18T13:44:03.012Z,100763.69
2022-10-18T13:46:32.830Z,100770.16
2022-10-18T13:49:39.111Z,100759.56
2022-10-18T13:53:08.113Z,100763.34
2022-10-18T13:55:56.240Z,100756.97
2022-10-18T13:59:15.801Z,100764.47
2022-10-18T14:02:50.422Z,100770.16
2022-10-18T14:06:10.521Z,100770.38
2022-10-18T14:08:56.177Z,100768.75
2022-10-18T14:11:35.966Z,100779.59
2022-10-18T14:14:50.924Z,100779.59
2022-10-18T14:17:42.879Z,100780.41
2022-10-18T14:20:49.533Z,100775.81
2022-10-18T14:23:34.485Z,100777.94
2022-10-18T14:26:20.469Z,100784.41
2022-10-18T14:29:07.362Z,100782.16
2022-10-18T14:31:35.191Z,100778.88
2022-10-18T14:34:03.059Z,100775.53
2022-10-18T14:36:40.983Z,100780.16
2022-10-18T14:39:23.837Z,100782.50
2022-10-18T14:41:53.858Z,100780.03
2022-10-18T14:44:31.284Z,100785.66
2022-10-18T14:47:15.004Z,100778.59
2022-10-18T14:49:46.537Z,100791.56
2022-10-18T14:52:18.562Z,100783.66
2022-10-18T14:54:46.435Z,100788.28
2022-10-18T14:57:34.957Z,100783.06
2022-10-18T15:00:17.422Z,100786.00
2022-10-18T15:02:44.584Z,100787.06
2022-10-18T15:05:25.104Z,100781.88
2022-10-18T15:07:53.401Z,100785.41
2022-10-18T15:10:33.580Z,100780.44
2022-10-18T15:13:09.905Z,100786.94
2022-10-18T15:15:38.327Z,100788.00
2022-10-18T15:18:06.839Z,100790.94
2022-10-18T15:20:42.908Z,100788.47
2022-10-18T15:23:26.930Z,100787.03
2022-10-18T15:26:12.482Z,100788.31
2022-10-18T15:28:51.399Z,100787.72
2022-10-18T15:31:30.039Z,100786.53
2022-10-18T15:34:18.125Z,100786.97
2022-10-18T15:36:45.748Z,100793.91
2022-10-18T15:39:22.448Z,100792.44
2022-10-18T15:41:57.478Z,100794.81
2022-10-18T15:44:51.147Z,100791.50
2022-10-18T15:47:21.596Z,100787.59
2022-10-18T15:49:54.473Z,100793.47
2022-10-18T15:52:40.585Z,100795.56
2022-10-18T15:55:29.408Z,100788.97
2022-10-18T15:58:11.351Z,100794.38
2022-10-18T16:00:38.335Z,100798.38
2022-10-18T16:03:09.182Z,100788.00
2022-10-18T16:05:38.087Z,100791.97
2022-10-18T16:08:05.322Z,100794.91
2022-10-18T16:10:32.583Z,100802.44
2022-10-18T16:12:59.792Z,100799.97
2022-10-18T16:15:26.894Z,100803.75
2022-10-18T16:17:53.826Z,100804.75
2022-10-18T16:20:23.869Z,100801.47
2022-10-18T16:22:50.855Z,100799.81
2022-10-18T16:25:18.040Z,100804.63
2022-10-18T16:27:44.966Z,100794.00
2022-10-18T16:30:20.398Z,100799.66
2022-10-18T16:32:48.825Z,100803.44
2022-10-18T16:35:15.894Z,100802.84
2022-10-18T16:37:43.276Z,100806.59
2022-10-18T16:40:24.732Z,100818.91
2022-10-18T16:42:52.070Z,100814.56
2022-10-18T16:45:19.342Z,100820.22
2022-10-18T16:47:46.608Z,100821.47
2022-10-18T16:50:18.753Z,100826.28
2022-10-18T16:52:45.701Z,100828.16
2022-10-18T16:55:24.771Z,100831.31
2022-10-18T16:57:52.033Z,100831.53
2022-10-18T17:00:22.818Z,100834.47
2022-10-18T17:02:50.457Z,100827.41
2022-10-18T17:05:18.961Z,100837.63
2022-10-18T17:07:46.884Z,100832.44
2022-10-18T17:10:20.916Z,100838.91
2022-10-18T17:12:47.966Z,100841.00
2022-10-18T17:15:14.925Z,100844.78
2022-10-18T17:17:42.018Z,100848.97
2022-10-18T17:20:16.177Z,100845.88
2022-10-18T17:22:43.094Z,100845.28
2022-10-18T17:25:10.048Z,100846.56
2022-10-18T17:27:37.058Z,100845.91
2022-10-18T17:30:04.541Z,100843.41
2022-10-18T17:32:31.626Z,100841.75
2022-10-18T17:35:00.703Z,100839.50
2022-10-18T17:37:27.743Z,100845.13
2022-10-18T17:39:54.928Z,100844.53
2022-10-18T17:42:21.941Z,100842.06
2022-10-18T17:44:49.099Z,100843.94
2022-10-18T17:47:16.782Z,100845.19
2022-10-18T17:49:44.824Z,100842.69
2022-10-18T17:52:11.928Z,100845.63
2022-10-18T17:54:38.889Z,100848.56
2022-10-18T17:57:05.818Z,100845.47
2022-10-18T17:59:33.008Z,100849.44
2022-10-18T18:02:00.079Z,100852.38
2022-10-18T18:04:27.085Z,100851.75
2022-10-18T18:06:54.229Z,100850.31
2022-10-18T18:09:21.287Z,100847.03
2022-10-18T18:11:49.271Z,100846.63
2022-10-18T18:14:16.862Z,100854.97
2022-10-18T18:16:46.624Z,100844.38
2022-10-18T18:19:14.862Z,100843.72
2022-10-18T18:21:42.611Z,100841.25
2022-10-18T18:24:10.450Z,100846.06
2022-10-18T18:26:40.765Z,100842.97
2022-10-18T18:29:08.030Z,100843.19
2022-10-18T18:31:38.853Z,100847.16
2022-10-18T18:34:07.272Z,100846.53
2022-10-18T18:36:34.295Z,100852.16
2022-10-18T18:39:01.467Z,100847.22
2022-10-18T18:41:29.047Z,100853.88
2022-10-18T18:44:05.439Z,100856.38
2022-10-18T18:46:38.720Z,100862.69
2022-10-18T18:49:07.972Z,100860.41
2022-10-18T18:51:37.990Z,100859.78
2022-10-18T18:54:05.151Z,100858.56
2022-10-18T18:56:32.191Z,100858.78
2022-10-18T18:59:00.184Z,100860.06
2022-10-18T19:01:30.852Z,100859.19
2022-10-18T19:03:58.480Z,100863.41
2022-10-18T19:06:41.642Z,100857.16
2022-10-18T19:09:25.476Z,100858.00
2022-10-18T19:11:54.826Z,100853.63
2022-10-18T19:14:24.766Z,100862.78
2022-10-18T19:16:59.339Z,100856.56
2022-10-18T19:19:29.611Z,100853.19
2022-10-18T19:22:03.591Z,100845.31
2022-10-18T19:24:31.273Z,100851.53
2022-10-18T19:27:05.343Z,100834.94
2022-10-18T19:29:38.276Z,100836.19
2022-10-18T19:32:08.513Z,100832.66
2022-10-18T19:34:35.942Z,100830.41
2022-10-18T19:37:03.736Z,100821.66
2022-10-18T19:39:33.772Z,100826.69
2022-10-18T19:42:04.460Z,100823.56
2022-10-18T19:44:34.783Z,100828.38
2022-10-18T19:47:02.714Z,100830.47
2022-10-18T19:49:29.930Z,100827.13
2022-10-18T19:51:57.458Z,100829.22
2022-10-18T19:54:24.981Z,100827.56
2022-10-18T19:56:51.982Z,100829.66
2022-10-18T19:59:19.313Z,100833.59
2022-10-18T20:01:46.335Z,100826.75
2022-10-18T20:04:14.359Z,100830.94
2022-10-18T20:06:41.879Z,100836.75
2022-10-18T20:09:13.374Z,100846.31
2022-10-18T20:11:43.299Z,100845.94
2022-10-18T20:14:10.757Z,100850.91
2022-10-18T20:16:37.827Z,100856.75
2022-10-18T20:19:07.117Z,100858.81
2022-10-18T20:21:35.680Z,100853.03
2022-10-18T20:24:07.482Z,100855.06
2022-10-18T20:26:35.753Z,100856.34
2022-10-18T20:29:03.749Z,100860.91
2022-10-18T20:31:35.419Z,100857.59
2022-10-18T20:34:06.198Z,100869.44
2022-10-18T20:36:33.785Z,100863.00
2022-10-18T20:39:01.919Z,100864.66
2022-10-18T20:41:33.650Z,100861.97
2022-10-18T20:44:04.307Z,100858.44
2022-10-18T20:46:34.199Z,100856.56
2022-10-18T20:49:01.449Z,100853.88
2022-10-18T20:51:28.678Z,100852.00
2022-10-18T20:53:56.027Z,100848.47
2022-10-18T20:56:26.508Z,100848.47
2022-10-18T20:58:56.725Z,100846.59
2022-10-18T21:01:33.121Z,100850.56
2022-10-18T21:04:06.910Z,100839.78
2022-10-18T21:06:40.921Z,100841.00
2022-10-18T21:09:14.827Z,100845.56
2022-10-18T21:11:44.926Z,100847.66
2022-10-18T21:14:21.014Z,100841.63
2022-10-18T21:16:49.798Z,100842.66
2022-10-18T21:19:19.527Z,100839.34
2022-10-18T21:21:50.447Z,100834.41
2022-10-18T21:24:19.376Z,100836.44
2022-10-18T21:26:47.785Z,100833.16
2022-10-18T21:29:20.777Z,100827.97
2022-10-18T21:31:49.070Z,100830.84
2022-10-18T21:34:17.420Z,100827.53
2022-10-18T21:36:47.112Z,100820.47
2022-10-18T21:39:20.610Z,100822.34
2022-10-18T21:41:49.920Z,100817.75
2022-10-18T21:44:18.548Z,100813.41
2022-10-18T21:46:46.858Z,100821.50
2022-10-18T21:49:14.869Z,100810.94
2022-10-18T21:51:42.878Z,100812.81
2022-10-18T21:54:15.983Z,100808.63
2022-10-18T21:56:43.432Z,100802.84
2022-10-18T21:59:13.022Z,100800.78
2022-10-18T22:01:40.491Z,100803.03
2022-10-18T22:04:25.175Z,100807.22
2022-10-18T22:06:52.278Z,100805.56
2022-10-18T22:09:21.045Z,100799.72
2022-10-18T22:11:52.648Z,100798.28
2022-10-18T22:14:21.052Z,100791.44
2022-10-18T22:16:48.199Z,100795.19
2022-10-18T22:19:15.194Z,100789.16
2022-10-18T22:21:42.133Z,100788.34
2022-10-18T22:24:09.562Z,100785.88
2022-10-18T22:26:39.799Z,100783.34
2022-10-18T22:29:33.184Z,100785.03
2022-10-18T22:32:01.750Z,100775.47
2022-10-18T22:34:28.734Z,100775.91
2022-10-18T22:36:56.377Z,100774.44
2022-10-18T22:39:24.527Z,100780.88
2022-10-18T22:41:55.601Z,100785.44
2022-10-18T22:44:22.714Z,100778.38
2022-10-18T22:46:49.659Z,100782.13
2022-10-18T22:49:16.625Z,100782.13
2022-10-18T22:51:43.816Z,100786.69
2022-10-18T22:54:11.033Z,100790.41
2022-10-18T22:56:38.082Z,100789.59
2022-10-18T22:59:05.136Z,100792.69
2022-10-18T23:01:32.461Z,100789.16
2022-10-18T23:04:00.530Z,100789.38
2022-10-18T23:06:34.055Z,100787.09
2022-10-18T23:09:05.966Z,100780.25
2022-10-18T23:11:35.102Z,100784.19
2022-10-18T23:14:03.924Z,100786.25
2022-10-18T23:16:31.395Z,100792.06
2022-10-18T23:18:59.369Z,100791.41
2022-10-18T23:21:28.485Z,100790.19
2022-10-18T23:23:56.121Z,100788.72
2022-10-18T23:26:26.604Z,100788.91
2022-10-18T23:28:54.404Z,100792.88
2022-10-18T23:31:29.493Z,100798.47
2022-10-18T23:34:00.251Z,100793.25
2022-10-18T23:36:27.807Z,100794.94
2022-10-18T23:38:55.569Z,100789.53
2022-10-18T23:41:23.641Z,100801.31
2022-10-18T23:43:50.918Z,100792.00
2022-10-18T23:46:18.605Z,100791.38
2022-10-18T23:48:46.545Z,100803.56
2022-10-18T23:51:14.158Z,100798.56
2022-10-18T23:53:41.516Z,100798.97
2022-10-18T23:56:15.661Z,100801.44
2022-10-18T23:58:44.188Z,100805.16
